Time;durP1;ratioP1;P1;durP2;ratioP2;P2;SDS_P1;SDS_P2;PMS_P1;PMS_P2;Temp;Humidity;BMP_temperature;BMP_pressure;BME280_temperature;BME280_humidity;BME280_pressure;Samples;Min_cycle;Max_cycle;Signal;HPM_P1;HPM_P2
2022/08/13 00:01:18;;;;;;;4.87;4.47;;;23.40;47.90;;;;;;5088680;27;20455;-69
2022/08/13 00:03:45;;;;;;;6.17;5.03;;;23.30;47.90;;;;;;5054331;28;20502;-70
2022/08/13 00:06:11;;;;;;;5.43;4.70;;;23.40;47.90;;;;;;5070970;28;20483;-70
2022/08/13 00:08:39;;;;;;;4.83;4.53;;;23.30;47.90;;;;;;5066850;28;20455;-70
2022/08/13 00:11:07;;;;;;;5.30;4.90;;;23.40;47.90;;;;;;5066794;28;20449;-69
2022/08/13 00:13:33;;;;;;;4.83;4.53;;;23.30;47.90;;;;;;5081243;28;20469;-70
2022/08/13 00:16:00;;;;;;;5.23;4.90;;;23.20;47.90;;;;;;5058604;28;20446;-69
2022/08/13 00:18:29;;;;;;;5.10;4.70;;;23.30;48.10;;;;;;5068743;28;20528;-69
2022/08/13 00:20:57;;;;;;;5.13;4.73;;;23.30;48.20;;;;;;5071026;28;20448;-69
2022/08/13 00:23:25;;;;;;;4.60;4.30;;;23.10;48.10;;;;;;5074964;28;21244;-70
2022/08/13 00:25:54;;;;;;;4.70;4.40;;;23.20;48.20;;;;;;5055659;28;20520;-69
2022/08/13 00:28:22;;;;;;;5.20;4.80;;;23.20;48.20;;;;;;5066997;28;20468;-70
2022/08/13 00:30:48;;;;;;;4.73;4.33;;;23.10;48.30;;;;;;5067244;28;20449;-70
2022/08/13 00:33:22;;;;;;;5.20;4.70;;;23.00;48.60;;;;;;5082342;28;20556;-70
2022/08/13 00:35:51;;;;;;;6.67;4.10;;;23.00;48.40;;;;;;5076424;28;20628;-69
2022/08/13 00:38:24;;;;;;;5.17;4.87;;;23.00;48.40;;;;;;5073644;28;20457;-69
2022/08/13 00:40:53;;;;;;;5.03;4.63;;;23.00;48.30;;;;;;5081005;28;20456;-69
2022/08/13 00:43:20;;;;;;;5.20;4.80;;;23.00;48.40;;;;;;5061367;28;20466;-69
2022/08/13 00:45:48;;;;;;;5.40;4.80;;;22.90;48.20;;;;;;5065521;28;20552;-69
2022/08/13 00:50:59;;;;;;;4.90;4.40;;;22.80;48.60;;;;;;5066923;28;20448;-69
2022/08/13 00:53:26;;;;;;;4.30;4.00;;;22.70;48.70;;;;;;5068172;28;20456;-69
2022/08/13 00:55:58;;;;;;;4.80;4.40;;;22.70;48.60;;;;;;5073289;28;21650;-70
2022/08/13 00:58:27;;;;;;;4.67;4.30;;;22.60;48.60;;;;;;5070460;28;20449;-70
2022/08/13 01:00:59;;;;;;;5.17;4.70;;;22.60;48.60;;;;;;5046867;28;20531;-69
2022/08/13 01:03:29;;;;;;;4.63;4.33;;;22.70;48.70;;;;;;5074891;28;20475;-69
2022/08/13 01:05:59;;;;;;;5.07;4.60;;;22.60;48.70;;;;;;5068730;28;21075;-69
2022/08/13 01:08:27;;;;;;;5.00;4.67;;;22.60;48.70;;;;;;5058342;28;20454;-69
2022/08/13 01:10:56;;;;;;;6.13;5.63;;;22.60;48.70;;;;;;5075355;28;20476;-69
2022/08/13 01:13:28;;;;;;;5.00;4.60;;;22.60;48.80;;;;;;5068315;28;20449;-69
2022/08/13 01:15:56;;;;;;;6.03;5.00;;;22.50;48.80;;;;;;5049373;28;20457;-69
2022/08/13 01:18:23;;;;;;;5.03;4.63;;;22.50;48.80;;;;;;5079156;28;20489;-69
2022/08/13 01:20:58;;;;;;;5.43;5.03;;;22.50;48.80;;;;;;5062334;28;20522;-69
2022/08/13 01:23:25;;;;;;;4.40;4.10;;;22.40;48.70;;;;;;5090138;27;20463;-69
2022/08/13 01:25:54;;;;;;;5.37;4.20;;;22.40;48.80;;;;;;5063381;28;20445;-69
2022/08/13 01:28:27;;;;;;;4.60;4.30;;;22.40;48.80;;;;;;5080635;28;20444;-69
2022/08/13 01:30:58;;;;;;;4.27;3.97;;;22.30;48.90;;;;;;5072661;28;20441;-69
2022/08/13 01:33:24;;;;;;;4.87;4.53;;;22.30;48.90;;;;;;5069053;28;20484;-69
2022/08/13 01:35:52;;;;;;;5.10;4.70;;;22.20;48.80;;;;;;5063871;28;20442;-69
2022/08/13 01:38:20;;;;;;;4.40;4.10;;;22.20;48.90;;;;;;5067135;28;20480;-69
2022/08/13 01:40:48;;;;;;;4.50;4.10;;;22.30;49.00;;;;;;5054600;28;20446;-69
2022/08/13 01:43:15;;;;;;;4.00;3.80;;;22.20;49.00;;;;;;5067042;28;20459;-69
2022/08/13 01:45:43;;;;;;;3.80;3.50;;;22.20;49.10;;;;;;5074184;28;20597;-69
2022/08/13 01:50:54;;;;;;;4.83;3.87;;;22.10;49.50;;;;;;5074310;28;20473;-70
2022/08/13 01:53:19;;;;;;;4.07;3.80;;;22.10;49.10;;;;;;5080779;28;20487;-70
2022/08/13 01:55:52;;;;;;;4.40;4.10;;;22.10;49.30;;;;;;5085587;28;20291;-69
2022/08/13 01:58:26;;;;;;;4.73;3.90;;;22.00;49.10;;;;;;5081004;28;20231;-69
2022/08/13 02:00:57;;;;;;;5.27;3.60;;;21.90;49.40;;;;;;5066329;28;20441;-69
2022/08/13 02:03:24;;;;;;;4.00;3.70;;;21.80;49.50;;;;;;5068605;28;20869;-69
2022/08/13 02:05:50;;;;;;;3.97;3.70;;;21.90;49.70;;;;;;5070454;28;20817;-69
2022/08/13 02:08:24;;;;;;;4.57;4.17;;;21.80;49.50;;;;;;5056996;28;20507;-70
2022/08/13 02:10:52;;;;;;;4.00;3.70;;;21.80;49.50;;;;;;5065017;28;20445;-69
2022/08/13 02:13:27;;;;;;;4.17;3.87;;;21.80;49.70;;;;;;5079366;28;20541;-69
2022/08/13 02:15:52;;;;;;;3.80;3.60;;;21.70;49.70;;;;;;5072510;28;20918;-69
2022/08/13 02:18:21;;;;;;;3.60;3.37;;;21.70;49.70;;;;;;5070198;28;20463;-69
2022/08/13 02:20:58;;;;;;;3.83;3.50;;;21.70;49.70;;;;;;5070511;27;20686;-68
2022/08/13 02:23:27;;;;;;;3.63;3.40;;;21.70;49.50;;;;;;5070981;28;20496;-69
2022/08/13 02:25:53;;;;;;;2.93;2.73;;;21.70;49.70;;;;;;5071311;27;21723;-69
2022/08/13 02:28:21;;;;;;;3.43;3.20;;;21.60;50.00;;;;;;5086520;27;20460;-69
2022/08/13 02:30:48;;;;;;;3.60;3.37;;;21.60;50.00;;;;;;5058874;28;20466;-68
2022/08/13 02:33:14;;;;;;;3.67;3.37;;;21.40;49.90;;;;;;5067516;28;20487;-69
2022/08/13 02:35:42;;;;;;;3.73;3.53;;;21.50;50.20;;;;;;5068301;28;20465;-68
2022/08/13 02:38:11;;;;;;;3.30;3.10;;;21.40;50.00;;;;;;5085935;28;20441;-69
2022/08/13 02:43:25;;;;;;;3.27;3.07;;;21.40;50.00;;;;;;5070375;28;20454;-68
2022/08/13 02:45:53;;;;;;;3.70;3.40;;;21.40;50.10;;;;;;5065368;28;20485;-68
2022/08/13 02:48:24;;;;;;;3.67;3.37;;;21.30;50.20;;;;;;5058735;28;20601;-69
2022/08/13 02:50:51;;;;;;;3.60;3.30;;;21.30;50.20;;;;;;5079907;28;20449;-68
2022/08/13 02:53:19;;;;;;;3.37;3.17;;;21.20;50.30;;;;;;5067306;28;20485;-69
2022/08/13 02:55:47;;;;;;;3.70;3.40;;;21.20;50.30;;;;;;5068741;28;20454;-69
2022/08/13 02:58:17;;;;;;;4.00;3.40;;;21.20;50.20;;;;;;5050305;28;20453;-69
2022/08/13 03:00:48;;;;;;;3.27;3.07;;;21.30;50.20;;;;;;5056400;28;20460;-67
2022/08/13 03:03:14;;;;;;;4.17;3.50;;;21.30;50.30;;;;;;5065050;28;20469;-68
2022/08/13 03:05:41;;;;;;;3.83;3.50;;;21.20;50.40;;;;;;5062595;28;20468;-69
2022/08/13 03:08:07;;;;;;;5.67;3.50;;;21.20;50.30;;;;;;5065528;28;20457;-70
2022/08/13 03:10:33;;;;;;;3.77;3.47;;;21.20;50.50;;;;;;5068945;28;20461;-70
2022/08/13 03:13:07;;;;;;;5.73;4.00;;;21.20;50.40;;;;;;5071656;28;20998;-69
2022/08/13 03:15:35;;;;;;;3.80;3.50;;;21.20;50.30;;;;;;5081406;28;20275;-70
2022/08/13 03:18:01;;;;;;;4.50;4.20;;;21.10;50.30;;;;;;5067567;28;20506;-69
2022/08/13 03:20:27;;;;;;;4.50;4.20;;;21.10;50.20;;;;;;5068901;28;20544;-69
2022/08/13 03:22:55;;;;;;;5.07;4.73;;;21.10;50.40;;;;;;5067960;28;20225;-68
2022/08/13 03:25:22;;;;;;;5.40;4.40;;;21.10;50.30;;;;;;5083283;27;20249;-69
2022/08/13 03:27:54;;;;;;;5.43;5.03;;;21.10;50.30;;;;;;5071666;27;20553;-69
2022/08/13 03:30:21;;;;;;;4.73;4.33;;;21.00;50.40;;;;;;5067614;28;20453;-69
2022/08/13 03:32:49;;;;;;;5.17;4.30;;;21.00;50.50;;;;;;5063827;27;20980;-69
2022/08/13 03:35:21;;;;;;;6.67;4.27;;;21.00;50.50;;;;;;5066600;28;21018;-70
2022/08/13 03:37:53;;;;;;;7.93;4.90;;;20.90;50.50;;;;;;5066583;27;20453;-69
2022/08/13 03:40:20;;;;;;;5.17;4.70;;;21.00;50.70;;;;;;5085378;27;20989;-69
2022/08/13 03:42:48;;;;;;;6.17;4.83;;;20.90;50.70;;;;;;5067314;28;20548;-69
2022/08/13 03:45:15;;;;;;;5.50;5.10;;;20.80;51.10;;;;;;5086669;27;20486;-69
2022/08/13 03:47:42;;;;;;;5.33;4.90;;;20.70;50.90;;;;;;5072325;27;21000;-71
2022/08/13 03:50:10;;;;;;;6.07;5.50;;;20.80;51.10;;;;;;5068117;27;20454;-69
2022/08/13 03:52:36;;;;;;;4.70;4.40;;;20.70;51.30;;;;;;5067513;27;20454;-69
2022/08/13 03:55:06;;;;;;;5.30;4.90;;;20.60;51.40;;;;;;5069623;27;20441;-69
2022/08/13 03:57:32;;;;;;;8.33;4.23;;;20.40;51.60;;;;;;5071202;28;21055;-69
2022/08/13 03:59:59;;;;;;;4.50;4.20;;;20.50;51.60;;;;;;5073957;28;20437;-69
2022/08/13 04:02:25;;;;;;;4.40;4.00;;;20.50;51.50;;;;;;5069518;28;21035;-69
2022/08/13 04:04:51;;;;;;;4.40;3.80;;;20.50;51.50;;;;;;5071082;27;20452;-68
2022/08/13 04:07:20;;;;;;;6.83;4.20;;;20.50;51.60;;;;;;5063519;28;20215;-69
2022/08/13 04:09:46;;;;;;;3.40;3.13;;;20.50;51.40;;;;;;5071627;27;20454;-68
2022/08/13 04:12:13;;;;;;;4.23;3.93;;;20.40;51.80;;;;;;5075557;28;20544;-68
2022/08/13 04:14:43;;;;;;;3.80;3.50;;;20.40;51.60;;;;;;5069829;28;20493;-68
2022/08/13 04:17:10;;;;;;;3.70;3.50;;;20.40;51.40;;;;;;5072328;28;20529;-68
2022/08/13 04:19:39;;;;;;;4.30;3.57;;;20.40;51.50;;;;;;5071453;28;20461;-69
2022/08/13 04:22:13;;;;;;;8.40;3.90;;;20.40;51.80;;;;;;5071564;28;20806;-69
2022/08/13 04:24:40;;;;;;;4.43;3.53;;;20.40;51.40;;;;;;5066400;27;20515;-67
2022/08/13 04:27:05;;;;;;;3.40;3.20;;;20.30;51.80;;;;;;5075225;28;20461;-69
2022/08/13 04:29:32;;;;;;;3.63;3.33;;;20.30;51.80;;;;;;5068042;28;20479;-68
2022/08/13 04:31:59;;;;;;;3.57;3.37;;;20.20;51.90;;;;;;5071409;28;20219;-69
2022/08/13 04:34:27;;;;;;;3.53;3.20;;;20.30;51.80;;;;;;5068462;28;20988;-69
2022/08/13 04:36:54;;;;;;;3.90;3.50;;;20.30;51.70;;;;;;5053017;28;20454;-69
2022/08/13 04:39:20;;;;;;;3.87;3.10;;;20.20;51.90;;;;;;5059828;28;20466;-69
2022/08/13 04:41:46;;;;;;;3.70;3.40;;;20.20;52.00;;;;;;5068846;28;20571;-69
2022/08/13 04:44:12;;;;;;;3.03;2.83;;;20.20;52.30;;;;;;5065683;28;20449;-68
2022/08/13 04:46:38;;;;;;;3.20;3.00;;;20.20;51.90;;;;;;5067103;28;20470;-68
2022/08/13 04:49:07;;;;;;;3.27;2.97;;;20.20;51.90;;;;;;5064962;28;20465;-68
2022/08/13 04:51:34;;;;;;;4.07;3.07;;;20.20;52.10;;;;;;5069698;28;20524;-68
2022/08/13 04:54:00;;;;;;;3.10;2.90;;;20.20;51.90;;;;;;5075549;28;20532;-69
2022/08/13 04:56:27;;;;;;;3.00;2.87;;;20.20;51.90;;;;;;5071692;28;20458;-69
2022/08/13 04:58:53;;;;;;;3.77;3.17;;;20.30;51.90;;;;;;5062290;28;20518;-68
2022/08/13 05:01:21;;;;;;;2.90;2.70;;;20.20;52.30;;;;;;5071066;28;20464;-68
2022/08/13 05:03:47;;;;;;;3.87;3.57;;;20.20;51.90;;;;;;5046091;28;20458;-69
2022/08/13 05:06:19;;;;;;;5.60;3.33;;;20.20;51.90;;;;;;5064248;28;20473;-69
2022/08/13 05:08:46;;;;;;;3.47;3.27;;;20.20;51.80;;;;;;5067899;28;20466;-68
2022/08/13 05:11:12;;;;;;;5.10;3.40;;;20.30;51.80;;;;;;5069572;28;20446;-69
2022/08/13 05:13:39;;;;;;;3.87;3.60;;;20.30;52.00;;;;;;5086217;28;20449;-69
2022/08/13 05:16:07;;;;;;;2.87;2.70;;;20.30;52.30;;;;;;5071566;28;20459;-68
2022/08/13 05:18:37;;;;;;;5.70;3.50;;;20.30;52.40;;;;;;5093969;28;20456;-69
2022/08/13 05:21:06;;;;;;;4.07;3.77;;;20.30;53.00;;;;;;5058098;28;20545;-67
2022/08/13 05:23:34;;;;;;;6.80;3.90;;;20.30;52.10;;;;;;5069315;28;20505;-68
2022/08/13 05:26:00;;;;;;;3.90;3.60;;;20.30;52.70;;;;;;5072169;28;20468;-69
2022/08/13 05:28:27;;;;;;;5.70;3.67;;;20.30;52.20;;;;;;5064957;28;20464;-69
2022/08/13 05:30:53;;;;;;;5.00;4.07;;;20.30;52.30;;;;;;5070210;28;20464;-69
2022/08/13 05:33:22;;;;;;;3.80;3.50;;;20.40;52.00;;;;;;5072201;28;20457;-69
2022/08/13 05:35:52;;;;;;;4.03;3.73;;;20.40;52.00;;;;;;5053135;28;20965;-68
2022/08/13 05:38:22;;;;;;;4.77;3.77;;;20.40;52.60;;;;;;5067902;28;20449;-69
2022/08/13 05:40:57;;;;;;;4.83;3.77;;;20.40;52.40;;;;;;5056831;28;20465;-69
2022/08/13 05:43:24;;;;;;;3.50;3.20;;;20.40;52.50;;;;;;5084798;28;20457;-69
2022/08/13 05:45:57;;;;;;;3.70;3.40;;;20.50;52.40;;;;;;5053408;28;20468;-68
2022/08/13 05:48:25;;;;;;;3.50;3.23;;;20.50;52.30;;;;;;5071264;28;20480;-69
2022/08/13 05:50:51;;;;;;;3.37;3.17;;;20.50;52.20;;;;;;5066217;28;20445;-69
2022/08/13 05:53:17;;;;;;;3.30;3.07;;;20.50;52.10;;;;;;5070211;28;20450;-70
2022/08/13 05:55:43;;;;;;;5.10;3.03;;;20.60;52.10;;;;;;5060739;28;20207;-70
2022/08/13 05:58:13;;;;;;;3.37;3.00;;;20.60;52.00;;;;;;5062319;28;21039;-70
2022/08/13 06:03:25;;;;;;;2.93;2.73;;;20.60;52.20;;;;;;5078447;27;20507;-69
2022/08/13 06:05:55;;;;;;;4.53;3.03;;;20.60;52.30;;;;;;5069595;28;20960;-69
2022/08/13 06:08:35;;;;;;;3.30;3.00;;;20.70;52.40;;;;;;5051563;28;20227;-70
2022/08/13 06:11:04;;;;;;;2.27;2.17;;;20.70;52.20;;;;;;5058670;28;20858;-70
2022/08/13 06:13:31;;;;;;;3.23;2.73;;;20.70;52.20;;;;;;5062168;28;20454;-69
2022/08/13 06:16:00;;;;;;;3.03;2.83;;;20.80;52.30;;;;;;5066261;28;20482;-70
2022/08/13 06:18:27;;;;;;;2.70;2.50;;;20.80;52.40;;;;;;5069175;28;20603;-69
2022/08/13 06:20:55;;;;;;;2.00;1.90;;;20.80;52.30;;;;;;5061599;28;20457;-70
2022/08/13 06:23:23;;;;;;;2.90;2.70;;;20.90;52.50;;;;;;5065201;28;20583;-69
2022/08/13 06:25:51;;;;;;;4.90;2.70;;;20.90;52.70;;;;;;5068910;28;20484;-69
2022/08/13 06:28:22;;;;;;;2.60;2.40;;;20.90;52.20;;;;;;5068825;28;20457;-70
2022/08/13 06:30:55;;;;;;;3.27;2.43;;;21.00;52.50;;;;;;5071287;28;20460;-69
2022/08/13 06:33:22;;;;;;;2.70;2.40;;;21.10;52.70;;;;;;5070813;28;20590;-70
2022/08/13 06:36:08;;;;;;;2.57;2.37;;;21.10;52.90;;;;;;5064592;28;21040;-68
2022/08/13 06:38:37;;;;;;;2.60;2.50;;;21.20;53.10;;;;;;5068586;28;20456;-69
2022/08/13 06:41:05;;;;;;;2.77;2.60;;;21.30;53.10;;;;;;5075806;27;20446;-69
2022/08/13 06:43:36;;;;;;;4.83;2.47;;;21.40;53.20;;;;;;5065403;28;21020;-68
2022/08/13 06:46:05;;;;;;;2.40;2.30;;;21.50;53.40;;;;;;5067862;28;20465;-69
2022/08/13 06:48:33;;;;;;;2.47;2.27;;;21.50;53.30;;;;;;5068088;28;20450;-70
2022/08/13 06:50:59;;;;;;;2.53;2.33;;;21.60;53.20;;;;;;5077173;28;20443;-70
2022/08/13 06:53:25;;;;;;;3.70;2.60;;;21.70;53.60;;;;;;5085525;28;20492;-68
2022/08/13 06:55:52;;;;;;;2.27;2.07;;;21.80;53.70;;;;;;5072394;28;20497;-69
2022/08/13 06:58:27;;;;;;;2.70;2.60;;;21.90;53.70;;;;;;5057653;28;20216;-69
2022/08/13 07:00:55;;;;;;;2.50;2.40;;;21.90;53.60;;;;;;5062308;28;20516;-69
2022/08/13 07:03:26;;;;;;;5.77;2.77;;;22.10;53.80;;;;;;5065253;28;20485;-69
2022/08/13 07:05:53;;;;;;;5.70;2.97;;;22.20;53.80;;;;;;5048673;28;20589;-69
2022/08/13 07:08:20;;;;;;;2.67;2.47;;;22.30;53.70;;;;;;5060425;28;20457;-69
2022/08/13 07:10:51;;;;;;;3.10;2.60;;;22.40;53.70;;;;;;5067447;28;20479;-70
2022/08/13 07:13:20;;;;;;;2.60;2.40;;;22.40;53.70;;;;;;5067230;28;20461;-69
2022/08/13 07:15:51;;;;;;;2.80;2.60;;;22.60;53.80;;;;;;5061558;28;20449;-69
2022/08/13 07:18:17;;;;;;;5.13;2.60;;;22.60;53.80;;;;;;5068676;28;20449;-69
2022/08/13 07:20:44;;;;;;;2.40;2.30;;;22.80;53.90;;;;;;5031838;28;20461;-68
2022/08/13 07:23:11;;;;;;;2.40;2.20;;;22.90;53.90;;;;;;5065456;28;20246;-69
2022/08/13 07:25:39;;;;;;;2.40;2.30;;;23.00;53.80;;;;;;5078884;28;20578;-69
2022/08/13 07:28:05;;;;;;;4.67;2.70;;;23.10;53.90;;;;;;5063910;28;21039;-70
2022/08/13 07:30:31;;;;;;;2.60;2.43;;;23.20;53.70;;;;;;5056224;28;20532;-68
2022/08/13 07:32:57;;;;;;;4.50;2.70;;;23.40;53.70;;;;;;5067904;28;20519;-68
2022/08/13 07:35:23;;;;;;;2.77;2.30;;;23.50;53.70;;;;;;5066998;28;20222;-68
2022/08/13 07:37:52;;;;;;;2.60;2.40;;;23.60;53.80;;;;;;5062548;27;20218;-70
2022/08/13 07:40:19;;;;;;;2.87;2.57;;;23.70;53.80;;;;;;5067867;28;20514;-69
2022/08/13 07:42:48;;;;;;;2.90;2.60;;;23.70;53.60;;;;;;5069754;28;20509;-70
2022/08/13 07:45:23;;;;;;;2.27;2.17;;;23.80;53.70;;;;;;5065670;28;20473;-68
2022/08/13 07:47:50;;;;;;;2.67;2.33;;;23.90;53.60;;;;;;5064106;28;20990;-69
2022/08/13 07:50:17;;;;;;;2.90;2.70;;;24.10;53.60;;;;;;5070235;28;20451;-69
2022/08/13 07:52:43;;;;;;;2.77;2.57;;;24.20;53.50;;;;;;5064616;28;20515;-69
2022/08/13 07:55:09;;;;;;;2.70;2.60;;;24.30;53.10;;;;;;5056161;28;20454;-69
2022/08/13 07:57:36;;;;;;;2.60;2.50;;;24.40;53.30;;;;;;5057672;28;20499;-70
2022/08/13 08:00:05;;;;;;;2.80;2.70;;;24.50;53.20;;;;;;5069081;28;20643;-70
2022/08/13 08:02:39;;;;;;;2.47;2.27;;;24.60;53.20;;;;;;5060069;28;20441;-70
2022/08/13 08:05:13;;;;;;;3.00;2.80;;;24.70;53.00;;;;;;5054127;28;20450;-69
2022/08/13 08:07:40;;;;;;;2.90;2.50;;;24.80;52.90;;;;;;5062851;28;20462;-70
2022/08/13 08:10:07;;;;;;;3.00;2.80;;;24.90;52.60;;;;;;5063454;28;21099;-70
2022/08/13 08:12:35;;;;;;;3.03;2.83;;;25.10;52.70;;;;;;5084608;28;20446;-69
2022/08/13 08:15:10;;;;;;;3.93;2.10;;;25.20;52.60;;;;;;5061431;28;20974;-69
2022/08/13 08:17:37;;;;;;;2.97;2.77;;;25.30;52.50;;;;;;5069357;28;20452;-69
2022/08/13 08:20:03;;;;;;;2.67;2.37;;;25.40;52.50;;;;;;5069151;28;20488;-70
2022/08/13 08:22:30;;;;;;;2.90;2.60;;;25.50;52.40;;;;;;5056970;28;20492;-69
2022/08/13 08:24:57;;;;;;;6.07;2.97;;;25.60;52.40;;;;;;5066992;28;20452;-69
2022/08/13 08:27:25;;;;;;;2.60;2.50;;;25.60;52.30;;;;;;5073173;28;20476;-69
2022/08/13 08:29:52;;;;;;;3.73;2.80;;;25.80;52.20;;;;;;5064395;28;20456;-69
2022/08/13 08:32:19;;;;;;;2.47;2.33;;;25.80;52.20;;;;;;5049310;28;21093;-70
2022/08/13 08:34:46;;;;;;;2.70;2.60;;;26.00;52.10;;;;;;5066289;28;20544;-69
2022/08/13 08:42:54;;;;;;;2.90;2.70;;;26.20;51.90;;;;;;5064202;28;20449;-68
2022/08/13 08:45:21;;;;;;;2.77;2.57;;;26.40;51.70;;;;;;5073298;28;20889;-69
2022/08/13 08:47:48;;;;;;;2.60;2.50;;;26.50;51.50;;;;;;5067700;28;20464;-69
2022/08/13 08:50:16;;;;;;;2.90;2.70;;;26.60;51.40;;;;;;5059628;28;20497;-69
2022/08/13 08:55:35;;;;;;;3.50;3.20;;;26.70;51.20;;;;;;5059676;28;20446;-69
2022/08/13 08:58:04;;;;;;;3.00;2.80;;;26.70;51.10;;;;;;5066515;28;20452;-69
2022/08/13 09:00:31;;;;;;;3.30;3.10;;;26.80;51.20;;;;;;5071637;28;20456;-70
2022/08/13 09:02:57;;;;;;;3.37;3.17;;;26.90;51.20;;;;;;5067223;28;20448;-68
2022/08/13 09:05:25;;;;;;;5.30;3.03;;;27.00;51.00;;;;;;5070675;28;20554;-69
2022/08/13 09:07:52;;;;;;;3.50;3.30;;;27.00;51.00;;;;;;5072635;28;20445;-69
2022/08/13 09:10:20;;;;;;;3.07;2.47;;;27.10;51.10;;;;;;5072488;28;20308;-69
2022/08/13 09:12:48;;;;;;;3.10;2.90;;;27.20;51.00;;;;;;5072301;28;20545;-69
2022/08/13 09:15:21;;;;;;;3.03;2.83;;;27.40;50.90;;;;;;5065167;28;20224;-69
2022/08/13 09:17:48;;;;;;;2.97;2.77;;;27.40;50.80;;;;;;5069821;28;20222;-69
2022/08/13 09:20:17;;;;;;;2.60;2.50;;;27.50;50.80;;;;;;5067784;28;20252;-69
2022/08/13 09:22:45;;;;;;;3.20;3.00;;;27.70;50.90;;;;;;5067074;28;20230;-69
2022/08/13 09:25:16;;;;;;;4.32;3.05;;;27.80;50.80;;;;;;5058502;28;20232;-69
2022/08/13 09:27:46;;;;;;;3.13;2.92;;;27.90;50.80;;;;;;5067013;28;20296;-70
2022/08/13 09:30:13;;;;;;;3.08;2.78;;;27.90;50.50;;;;;;5052405;28;20292;-70
2022/08/13 09:32:40;;;;;;;3.22;2.92;;;28.00;50.50;;;;;;5066897;28;20338;-69
2022/08/13 09:35:07;;;;;;;3.20;3.00;;;28.10;50.30;;;;;;5071612;28;20592;-69
2022/08/13 09:37:34;;;;;;;3.08;2.88;;;28.30;50.40;;;;;;5068286;28;20268;-70
2022/08/13 09:40:06;;;;;;;2.95;2.72;;;28.30;50.30;;;;;;5071833;28;20221;-68
2022/08/13 09:42:57;;;;;;;3.50;3.20;;;28.40;50.10;;;;;;5069038;28;20261;-69
2022/08/13 09:45:25;;;;;;;3.22;3.03;;;28.40;49.70;;;;;;5062288;28;20539;-69
2022/08/13 09:47:55;;;;;;;2.83;2.72;;;28.40;49.70;;;;;;5070319;28;20247;-69
2022/08/13 09:50:23;;;;;;;3.08;2.78;;;28.50;49.60;;;;;;5068017;28;20236;-69
2022/08/13 09:52:51;;;;;;;3.45;3.22;;;28.50;49.60;;;;;;5068207;28;20224;-69
2022/08/13 09:55:17;;;;;;;2.88;2.67;;;28.50;49.60;;;;;;5069790;28;20222;-69
2022/08/13 09:57:54;;;;;;;3.30;3.10;;;28.80;49.60;;;;;;5069935;28;20226;-68
2022/08/13 10:00:22;;;;;;;2.90;2.70;;;28.70;49.20;;;;;;5060455;28;20231;-69
2022/08/13 10:02:50;;;;;;;3.42;3.15;;;28.60;49.20;;;;;;5076648;28;20225;-70
2022/08/13 10:05:18;;;;;;;3.22;3.03;;;28.70;48.90;;;;;;5060329;28;20223;-70
2022/08/13 10:07:45;;;;;;;3.28;3.08;;;28.80;48.70;;;;;;5069133;28;20222;-70
2022/08/13 10:10:12;;;;;;;2.60;2.50;;;28.80;48.70;;;;;;5087063;28;20258;-69
2022/08/13 10:12:38;;;;;;;3.20;3.00;;;28.80;48.70;;;;;;5079586;28;20622;-69
2022/08/13 10:15:04;;;;;;;3.00;2.80;;;29.00;48.80;;;;;;5061812;28;20357;-69
2022/08/13 10:17:45;;;;;;;3.17;2.97;;;29.10;48.70;;;;;;5070185;28;20277;-70
2022/08/13 10:20:11;;;;;;;3.28;2.97;;;29.20;48.70;;;;;;5060016;28;20242;-70
2022/08/13 10:22:37;;;;;;;3.20;3.00;;;29.20;48.80;;;;;;5067661;28;20222;-70
2022/08/13 10:25:03;;;;;;;5.78;3.17;;;29.30;48.90;;;;;;5072006;28;20611;-70
2022/08/13 10:27:28;;;;;;;3.45;3.05;;;29.50;48.70;;;;;;5069125;28;20318;-67
2022/08/13 10:29:54;;;;;;;4.25;3.33;;;29.70;48.30;;;;;;5069244;27;20633;-67
2022/08/13 10:32:20;;;;;;;3.38;3.08;;;29.60;48.30;;;;;;5065275;28;20242;-67
2022/08/13 10:34:46;;;;;;;2.63;2.53;;;29.50;47.90;;;;;;5058639;28;20243;-67
2022/08/13 10:37:12;;;;;;;3.40;3.20;;;29.60;47.90;;;;;;5062959;28;20224;-66
2022/08/13 10:39:38;;;;;;;3.80;3.50;;;29.70;47.80;;;;;;5070313;28;20248;-68
2022/08/13 10:42:04;;;;;;;3.35;3.10;;;29.70;47.70;;;;;;5048446;28;20327;-66
2022/08/13 10:44:31;;;;;;;3.20;3.00;;;29.70;47.60;;;;;;5066430;28;20227;-66
2022/08/13 10:46:57;;;;;;;2.95;2.75;;;29.80;47.80;;;;;;5070003;28;20261;-67
2022/08/13 10:49:23;;;;;;;3.67;3.38;;;29.90;47.70;;;;;;5066635;28;20730;-67
2022/08/13 10:51:49;;;;;;;2.95;2.75;;;30.00;47.60;;;;;;5046365;28;20224;-67
2022/08/13 10:54:14;;;;;;;3.10;2.90;;;30.10;47.80;;;;;;5067162;28;20337;-66
2022/08/13 10:56:41;;;;;;;3.20;3.00;;;30.10;48.30;;;;;;5068805;27;20224;-67
2022/08/13 10:59:07;;;;;;;3.70;3.50;;;30.20;47.60;;;;;;5069648;28;20707;-66
2022/08/13 11:01:33;;;;;;;3.05;2.95;;;30.00;47.30;;;;;;5066836;28;20228;-66
2022/08/13 11:04:01;;;;;;;3.10;2.90;;;30.10;47.30;;;;;;5068929;28;20228;-67
2022/08/13 11:06:28;;;;;;;3.20;3.05;;;30.30;47.30;;;;;;5060183;28;20243;-70
2022/08/13 11:08:57;;;;;;;3.08;2.88;;;30.30;47.00;;;;;;5080488;28;20223;-70
2022/08/13 11:11:24;;;;;;;3.20;3.03;;;30.30;47.40;;;;;;5075957;28;20223;-70
2022/08/13 11:13:49;;;;;;;4.57;4.25;;;30.50;47.00;;;;;;5066834;28;20219;-70
2022/08/13 11:19:11;;;;;;;3.20;3.00;;;30.40;46.90;;;;;;5074160;28;20319;-70
2022/08/13 11:21:37;;;;;;;3.58;3.38;;;30.60;47.00;;;;;;5068349;28;20229;-70
2022/08/13 11:24:03;;;;;;;3.00;2.90;;;30.70;46.80;;;;;;5057467;28;20711;-70
2022/08/13 11:26:28;;;;;;;3.88;3.30;;;30.70;46.50;;;;;;5048711;28;20237;-70
2022/08/13 11:28:54;;;;;;;4.22;3.50;;;30.70;46.30;;;;;;5083937;28;20207;-70
2022/08/13 11:31:20;;;;;;;3.42;3.22;;;30.70;46.30;;;;;;5063169;28;20268;-70
2022/08/13 11:33:46;;;;;;;2.97;2.78;;;30.60;46.40;;;;;;5065508;28;20217;-69
2022/08/13 11:36:11;;;;;;;3.65;3.35;;;30.70;46.20;;;;;;5058084;28;20312;-70
2022/08/13 11:38:37;;;;;;;3.10;2.90;;;30.60;46.30;;;;;;5066005;28;20308;-70
2022/08/13 11:41:03;;;;;;;3.33;3.13;;;30.60;46.50;;;;;;5068172;28;20679;-70
2022/08/13 11:43:30;;;;;;;3.17;2.97;;;30.70;46.60;;;;;;5066190;28;20231;-70
2022/08/13 11:45:56;;;;;;;2.90;2.80;;;30.80;46.60;;;;;;5083523;28;20701;-70
2022/08/13 11:48:23;;;;;;;3.70;3.50;;;30.70;46.30;;;;;;5063852;28;20254;-70
2022/08/13 11:50:49;;;;;;;3.50;3.30;;;30.60;46.30;;;;;;5067905;28;20219;-70
2022/08/13 11:53:16;;;;;;;3.30;3.10;;;30.70;46.60;;;;;;5083012;28;20241;-70
2022/08/13 11:55:42;;;;;;;4.32;3.22;;;30.60;46.20;;;;;;5068025;28;20213;-70
2022/08/13 11:58:09;;;;;;;3.20;3.00;;;30.70;45.90;;;;;;5050227;28;20218;-70
2022/08/13 12:00:36;;;;;;;3.45;3.25;;;30.40;45.70;;;;;;5057310;28;20242;-69
2022/08/13 12:03:02;;;;;;;3.03;2.83;;;30.60;46.20;;;;;;5058527;28;20256;-70
2022/08/13 12:05:28;;;;;;;2.88;2.70;;;30.60;46.20;;;;;;5059955;28;20631;-70
2022/08/13 12:07:54;;;;;;;3.47;3.17;;;30.80;46.30;;;;;;5063447;28;20222;-70
2022/08/13 12:10:20;;;;;;;3.50;3.30;;;30.80;46.00;;;;;;5067979;28;20211;-70
2022/08/13 12:12:46;;;;;;;3.25;3.08;;;30.90;45.90;;;;;;5066419;28;20714;-70
2022/08/13 12:15:13;;;;;;;3.08;2.92;;;31.00;45.90;;;;;;5066192;28;20207;-70
2022/08/13 12:17:43;;;;;;;2.97;2.78;;;30.90;45.70;;;;;;5062158;28;20765;-70
2022/08/13 12:20:19;;;;;;;3.25;3.05;;;30.90;45.70;;;;;;5070663;28;20210;-70
2022/08/13 12:22:45;;;;;;;3.35;3.10;;;30.70;45.70;;;;;;5059721;28;20219;-70
2022/08/13 12:25:11;;;;;;;3.42;3.17;;;30.80;45.90;;;;;;5059282;28;20226;-70
2022/08/13 12:27:39;;;;;;;3.30;2.88;;;30.90;45.50;;;;;;5060780;28;20291;-69
2022/08/13 12:30:06;;;;;;;6.63;3.15;;;30.90;45.50;;;;;;5067564;28;20309;-70
2022/08/13 12:32:32;;;;;;;3.13;2.92;;;31.00;45.60;;;;;;5052587;28;20218;-70
2022/08/13 12:34:58;;;;;;;3.28;3.08;;;31.10;45.80;;;;;;5072291;28;20214;-69
2022/08/13 12:37:24;;;;;;;3.45;3.25;;;31.10;45.30;;;;;;5062260;28;20234;-70
2022/08/13 12:39:55;;;;;;;4.22;3.47;;;31.10;45.10;;;;;;5070793;27;20225;-70
2022/08/13 12:42:22;;;;;;;3.30;3.10;;;31.10;45.10;;;;;;5067839;28;20383;-68
2022/08/13 12:44:48;;;;;;;3.50;3.10;;;31.20;45.00;;;;;;5067702;28;20234;-69
2022/08/13 12:47:13;;;;;;;3.35;3.15;;;31.20;45.30;;;;;;5068370;28;20234;-69
2022/08/13 12:49:39;;;;;;;3.30;3.10;;;31.40;45.00;;;;;;5067342;28;20817;-69
2022/08/13 12:52:05;;;;;;;3.72;3.35;;;31.40;44.70;;;;;;5053745;28;20266;-69
2022/08/13 12:54:31;;;;;;;2.95;2.75;;;31.40;45.10;;;;;;5068548;28;20237;-69
2022/08/13 12:56:56;;;;;;;3.05;2.85;;;31.40;45.30;;;;;;5061442;28;20239;-69
2022/08/13 12:59:22;;;;;;;3.67;3.47;;;31.60;45.40;;;;;;5065537;28;20218;-69
2022/08/13 13:01:52;;;;;;;4.00;3.80;;;31.70;45.40;;;;;;5062149;28;20218;-70
2022/08/13 13:04:20;;;;;;;3.83;3.53;;;31.60;45.20;;;;;;5080773;28;20219;-69
2022/08/13 13:06:46;;;;;;;3.92;3.72;;;31.50;45.00;;;;;;5086123;28;20284;-69
2022/08/13 13:09:12;;;;;;;3.45;3.25;;;31.30;44.90;;;;;;5067236;28;20219;-69
2022/08/13 13:11:39;;;;;;;3.78;3.58;;;31.20;45.00;;;;;;5045840;28;20310;-70
2022/08/13 13:14:04;;;;;;;3.67;3.45;;;31.20;45.10;;;;;;5064157;28;20219;-69